createdAt,value
2022-12-14T00:00:22.208Z,18.00
2022-12-14T00:02:52.407Z,18.40
2022-12-14T00:05:24.505Z,18.10
2022-12-14T00:07:53.181Z,18.37
2022-12-14T00:10:24.459Z,18.37
2022-12-14T00:12:53.307Z,17.57
2022-12-14T00:15:21.500Z,17.83
2022-12-14T00:17:49.104Z,18.97
2022-12-14T00:20:20.610Z,18.37
2022-12-14T00:22:51.032Z,19.07
2022-12-14T00:25:21.089Z,17.97
2022-12-14T00:27:49.590Z,18.00
2022-12-14T00:30:20.839Z,18.03
2022-12-14T00:32:49.102Z,17.63
2022-12-14T00:35:20.928Z,19.50
2022-12-14T00:37:51.825Z,17.10
2022-12-14T00:40:26.376Z,17.80
2022-12-14T00:42:53.784Z,17.53
2022-12-14T00:45:21.298Z,18.00
2022-12-14T00:47:51.040Z,17.73
2022-12-14T00:50:20.473Z,18.20
2022-12-14T00:52:47.789Z,18.60
2022-12-14T00:55:18.007Z,18.80
2022-12-14T00:57:48.121Z,18.40
2022-12-14T01:00:20.433Z,18.03
2022-12-14T01:02:50.188Z,18.63
2022-12-14T01:05:19.489Z,18.00
2022-12-14T01:07:51.597Z,18.37
2022-12-14T01:10:21.462Z,18.10
2022-12-14T01:12:51.088Z,17.70
2022-12-14T01:15:22.143Z,18.13
2022-12-14T01:20:33.204Z,17.70
2022-12-14T01:23:04.863Z,17.73
2022-12-14T01:25:33.091Z,17.27
2022-12-14T01:28:02.081Z,17.63
2022-12-14T01:30:34.242Z,17.63
2022-12-14T01:33:03.108Z,17.43
2022-12-14T01:35:33.959Z,17.70
2022-12-14T01:38:02.141Z,17.60
2022-12-14T01:40:32.967Z,17.57
2022-12-14T01:43:04.124Z,17.27
2022-12-14T01:45:33.408Z,17.53
2022-12-14T01:48:03.674Z,17.17
2022-12-14T01:50:39.419Z,17.37
2022-12-14T01:53:14.727Z,16.60
2022-12-14T01:55:49.098Z,17.83
2022-12-14T01:58:26.550Z,17.30
2022-12-14T02:00:58.554Z,17.33
2022-12-14T02:03:57.345Z,16.63
2022-12-14T02:06:35.635Z,17.57
2022-12-14T02:09:09.381Z,17.27
2022-12-14T02:12:06.371Z,18.20
2022-12-14T02:14:34.344Z,18.20
2022-12-14T02:17:02.664Z,18.17
2022-12-14T02:19:33.601Z,17.47
2022-12-14T02:22:40.788Z,17.23
2022-12-14T02:25:40.963Z,16.80
2022-12-14T02:28:48.260Z,17.93
2022-12-14T02:31:50.771Z,17.27
2022-12-14T02:34:55.720Z,17.57
2022-12-14T02:37:32.984Z,17.33
2022-12-14T02:40:12.424Z,17.10
2022-12-14T02:43:07.159Z,16.63
2022-12-14T02:45:53.388Z,16.60
2022-12-14T02:48:26.640Z,17.83
2022-12-14T02:51:32.189Z,17.63
2022-12-14T02:54:13.257Z,17.33
2022-12-14T02:56:51.564Z,17.40
2022-12-14T02:59:21.623Z,17.70
2022-12-14T03:01:52.052Z,17.83
2022-12-14T03:04:29.510Z,16.70
2022-12-14T03:07:22.033Z,17.57
2022-12-14T03:09:52.291Z,18.60
2022-12-14T03:12:22.510Z,16.93
2022-12-14T03:14:54.657Z,17.53
2022-12-14T03:17:35.313Z,16.80
2022-12-14T03:20:22.048Z,16.83
2022-12-14T03:23:08.189Z,17.27
2022-12-14T03:25:48.956Z,17.40
2022-12-14T03:28:20.271Z,17.27
2022-12-14T03:31:00.581Z,17.43
2022-12-14T03:33:31.057Z,17.33
2022-12-14T03:36:09.069Z,17.63
2022-12-14T03:38:45.877Z,17.07
2022-12-14T03:41:33.544Z,17.27
2022-12-14T03:44:30.693Z,16.47
2022-12-14T03:47:38.935Z,17.00
2022-12-14T03:50:22.075Z,16.57
2022-12-14T03:53:11.791Z,16.67
2022-12-14T03:55:53.938Z,17.40
2022-12-14T03:58:55.363Z,17.80
2022-12-14T04:01:55.932Z,16.87
2022-12-14T04:04:29.338Z,16.87
2022-12-14T04:07:05.301Z,19.33
2022-12-14T04:09:56.495Z,17.40
2022-12-14T04:12:54.503Z,17.83
2022-12-14T04:15:58.739Z,17.57
2022-12-14T04:18:55.838Z,18.63
2022-12-14T04:21:48.101Z,17.87
2022-12-14T04:24:51.858Z,18.80
2022-12-14T04:27:34.944Z,18.30
2022-12-14T04:30:05.788Z,18.37
2022-12-14T04:32:58.668Z,18.40
2022-12-14T04:38:29.683Z,18.90
2022-12-14T04:41:08.301Z,18.87
2022-12-14T04:43:48.869Z,19.63
2022-12-14T04:46:23.805Z,18.87
2022-12-14T04:49:12.821Z,19.90
2022-12-14T04:52:05.441Z,20.07
2022-12-14T04:55:17.414Z,20.10
2022-12-14T04:58:08.822Z,19.60
2022-12-14T05:00:45.999Z,20.40
2022-12-14T05:03:30.157Z,19.43
2022-12-14T05:06:14.349Z,20.03
2022-12-14T05:09:04.390Z,20.00
2022-12-14T05:12:02.784Z,19.87
2022-12-14T05:14:51.110Z,20.17
2022-12-14T05:17:21.734Z,19.10
2022-12-14T05:19:53.055Z,19.77
2022-12-14T05:22:21.213Z,19.50
2022-12-14T05:24:50.755Z,19.50
2022-12-14T05:27:20.680Z,20.13
2022-12-14T05:29:53.118Z,20.20
2022-12-14T05:32:23.656Z,19.60
2022-12-14T05:34:53.255Z,20.03
2022-12-14T05:37:24.694Z,19.60
2022-12-14T05:39:52.216Z,19.23
2022-12-14T05:42:20.908Z,20.23
2022-12-14T05:44:51.475Z,19.93
2022-12-14T05:47:24.492Z,19.93
2022-12-14T05:49:55.850Z,20.70
2022-12-14T05:52:26.287Z,19.93
2022-12-14T05:55:00.918Z,19.63
2022-12-14T05:57:33.080Z,20.00
2022-12-14T06:00:00.433Z,20.27
2022-12-14T06:02:34.820Z,22.57
2022-12-14T06:05:04.503Z,20.83
2022-12-14T06:07:33.310Z,20.10
2022-12-14T06:10:03.129Z,19.90
2022-12-14T06:12:34.320Z,20.77
2022-12-14T06:15:04.499Z,20.10
2022-12-14T06:17:38.825Z,21.50
2022-12-14T06:20:09.632Z,20.40
2022-12-14T06:22:39.480Z,20.83
2022-12-14T06:25:14.014Z,20.33
2022-12-14T06:27:42.404Z,20.60
2022-12-14T06:30:21.115Z,19.53
2022-12-14T06:32:49.880Z,18.43
2022-12-14T06:35:25.206Z,19.30
2022-12-14T06:37:55.161Z,19.23
2022-12-14T06:40:23.097Z,18.57
2022-12-14T06:42:54.129Z,20.03
2022-12-14T06:45:23.193Z,19.43
2022-12-14T06:47:53.078Z,19.83
2022-12-14T06:50:24.120Z,19.47
2022-12-14T06:52:55.896Z,19.53
2022-12-14T06:55:34.088Z,20.80
2022-12-14T06:58:01.824Z,19.33
2022-12-14T07:00:30.385Z,21.03
2022-12-14T07:03:00.217Z,22.97
2022-12-14T07:05:31.894Z,19.87
2022-12-14T07:08:01.623Z,21.27
2022-12-14T07:10:31.512Z,20.47
2022-12-14T07:13:02.101Z,20.80
2022-12-14T07:15:33.942Z,21.87
2022-12-14T07:18:03.959Z,20.63
2022-12-14T07:20:34.624Z,21.50
2022-12-14T07:23:04.152Z,20.53
2022-12-14T07:25:33.275Z,20.70
2022-12-14T07:28:01.982Z,20.13
2022-12-14T07:30:29.525Z,21.13
2022-12-14T07:32:58.409Z,20.87
2022-12-14T07:35:27.035Z,20.83
2022-12-14T07:37:55.069Z,20.07
2022-12-14T07:40:23.874Z,20.50
2022-12-14T07:42:53.806Z,20.33
2022-12-14T07:45:22.971Z,20.00
2022-12-14T07:47:51.402Z,20.23
2022-12-14T07:50:20.141Z,20.17
2022-12-14T07:52:50.696Z,20.00
2022-12-14T07:55:24.673Z,19.20
2022-12-14T07:57:55.723Z,19.77
2022-12-14T08:00:24.071Z,18.93
2022-12-14T08:02:58.696Z,19.63
2022-12-14T08:08:11.376Z,19.40
2022-12-14T08:10:41.550Z,20.23
2022-12-14T08:13:10.188Z,19.77
2022-12-14T08:15:38.752Z,19.50
2022-12-14T08:18:08.732Z,19.47
2022-12-14T08:20:38.457Z,19.17
2022-12-14T08:23:08.183Z,19.70
2022-12-14T08:25:36.025Z,19.53
2022-12-14T08:28:05.149Z,19.57
2022-12-14T08:30:39.605Z,20.03
2022-12-14T08:33:08.269Z,19.47
2022-12-14T08:35:38.671Z,18.87
2022-12-14T08:38:07.381Z,20.30
2022-12-14T08:40:36.020Z,20.20
2022-12-14T08:43:08.704Z,20.17
2022-12-14T08:45:37.592Z,20.07
2022-12-14T08:48:05.023Z,20.00
2022-12-14T08:50:34.781Z,20.13
2022-12-14T08:53:08.454Z,20.23
2022-12-14T08:55:38.671Z,20.40
2022-12-14T08:58:09.456Z,19.57
2022-12-14T09:00:41.075Z,21.17
2022-12-14T09:03:09.192Z,21.43
2022-12-14T09:05:39.343Z,26.10
2022-12-14T09:08:10.120Z,25.30
2022-12-14T09:10:40.892Z,27.20
2022-12-14T09:13:09.973Z,28.70
2022-12-14T09:15:41.501Z,23.40
2022-12-14T09:18:10.055Z,21.93
2022-12-14T09:20:38.698Z,34.13
2022-12-14T09:23:07.240Z,30.90
2022-12-14T09:25:35.866Z,29.43
2022-12-14T09:28:05.155Z,26.50
2022-12-14T09:30:37.234Z,26.80
2022-12-14T09:33:04.991Z,23.17
2022-12-14T09:35:35.372Z,21.93
2022-12-14T09:38:03.048Z,23.17
2022-12-14T09:40:35.239Z,24.33
2022-12-14T09:43:12.086Z,21.73
2022-12-14T09:45:51.096Z,22.97
2022-12-14T09:48:24.036Z,21.40
2022-12-14T09:50:54.329Z,20.77
2022-12-14T09:53:25.124Z,22.47
2022-12-14T09:55:58.253Z,21.83
2022-12-14T09:58:33.644Z,21.90
2022-12-14T10:01:39.286Z,22.30
2022-12-14T10:04:39.219Z,21.37
2022-12-14T10:07:43.937Z,22.53
2022-12-14T10:10:40.947Z,21.83
2022-12-14T10:13:46.558Z,22.87
2022-12-14T10:17:00.305Z,22.83
2022-12-14T10:19:52.605Z,22.97
2022-12-14T10:22:31.071Z,22.50
2022-12-14T10:25:16.457Z,22.37
2022-12-14T10:28:15.501Z,21.93
2022-12-14T10:33:35.049Z,22.37
2022-12-14T10:36:30.190Z,21.50
2022-12-14T10:39:03.199Z,22.30
2022-12-14T10:41:47.621Z,22.13
2022-12-14T10:44:22.039Z,21.87
2022-12-14T10:47:12.593Z,22.60
2022-12-14T10:50:22.105Z,21.60
2022-12-14T10:52:54.893Z,22.77
2022-12-14T10:55:41.613Z,22.17
2022-12-14T10:58:16.058Z,24.03
2022-12-14T11:00:45.867Z,22.43
2022-12-14T11:03:15.789Z,22.83
2022-12-14T11:06:18.771Z,22.43
2022-12-14T11:08:49.216Z,23.33
2022-12-14T11:11:24.459Z,22.80
2022-12-14T11:13:54.687Z,23.57
2022-12-14T11:16:36.751Z,23.17
2022-12-14T11:19:17.104Z,22.67
2022-12-14T11:21:50.178Z,22.60
2022-12-14T11:24:27.685Z,22.33
2022-12-14T11:27:01.205Z,22.97
2022-12-14T11:29:38.082Z,21.70
2022-12-14T11:32:19.311Z,22.60
2022-12-14T11:34:58.931Z,22.93
2022-12-14T11:37:35.714Z,23.43
2022-12-14T11:40:07.246Z,22.97
2022-12-14T11:42:36.675Z,22.40
2022-12-14T11:45:31.874Z,21.40
2022-12-14T11:48:18.299Z,22.47
2022-12-14T11:50:50.400Z,23.50
2022-12-14T11:53:20.153Z,23.53
2022-12-14T11:56:02.507Z,23.07
2022-12-14T11:58:39.977Z,24.10
2022-12-14T12:01:25.621Z,23.93
2022-12-14T12:03:59.520Z,23.97
2022-12-14T12:09:31.390Z,24.13
2022-12-14T12:12:00.244Z,23.53
2022-12-14T12:14:47.894Z,22.77
2022-12-14T12:17:38.239Z,23.40
2022-12-14T12:20:25.096Z,23.37
2022-12-14T12:23:04.570Z,24.07
2022-12-14T12:25:42.558Z,22.80
2022-12-14T12:28:26.913Z,24.13
2022-12-14T12:31:08.979Z,23.47
2022-12-14T12:33:55.223Z,24.17
2022-12-14T12:36:26.263Z,22.70
2022-12-14T12:39:08.515Z,24.03
2022-12-14T12:41:49.924Z,24.10
2022-12-14T12:45:16.482Z,24.17
2022-12-14T12:48:05.064Z,23.33
2022-12-14T12:50:42.480Z,23.83
2022-12-14T12:53:16.484Z,24.00
2022-12-14T12:55:52.299Z,22.93
2022-12-14T12:58:33.672Z,23.57
2022-12-14T13:01:12.249Z,24.17
2022-12-14T13:03:46.187Z,24.07
2022-12-14T13:06:47.449Z,24.33
2022-12-14T13:09:47.981Z,24.23
2022-12-14T13:15:39.360Z,24.77
2022-12-14T13:19:08.868Z,24.93
2022-12-14T13:21:49.948Z,25.13
2022-12-14T13:24:21.995Z,25.33
2022-12-14T13:27:40.741Z,25.33
2022-12-14T13:30:43.327Z,25.10
2022-12-14T13:33:40.731Z,25.73
2022-12-14T13:36:11.954Z,25.43
2022-12-14T13:39:13.124Z,25.63
2022-12-14T13:42:13.265Z,25.60
2022-12-14T13:45:01.936Z,25.70
2022-12-14T13:47:46.829Z,25.73
2022-12-14T13:50:37.350Z,26.03
2022-12-14T13:53:40.858Z,24.83
2022-12-14T13:56:18.513Z,25.27
2022-12-14T13:58:51.822Z,25.80
2022-12-14T14:01:41.518Z,25.30
2022-12-14T14:04:26.051Z,25.60
2022-12-14T14:07:19.694Z,25.20
2022-12-14T14:10:05.278Z,26.93
2022-12-14T14:12:44.629Z,25.20
2022-12-14T14:15:26.056Z,26.17
2022-12-14T14:18:06.892Z,26.03
2022-12-14T14:20:39.283Z,27.13
2022-12-14T14:23:19.146Z,26.30
2022-12-14T14:26:10.216Z,26.10
2022-12-14T14:28:39.824Z,26.70
2022-12-14T14:31:08.545Z,26.43
2022-12-14T14:33:47.253Z,27.90
2022-12-14T14:36:33.810Z,28.00
2022-12-14T14:39:31.389Z,28.03
2022-12-14T14:42:02.518Z,28.43
2022-12-14T14:44:49.345Z,27.77
2022-12-14T14:47:33.503Z,26.77
2022-12-14T14:50:04.717Z,27.03
2022-12-14T14:52:40.674Z,26.80
2022-12-14T14:55:52.636Z,27.23
2022-12-14T14:58:30.773Z,27.33
2022-12-14T15:01:12.212Z,27.13
2022-12-14T15:03:58.284Z,28.47
2022-12-14T15:06:37.568Z,27.47
2022-12-14T15:09:26.831Z,28.00
2022-12-14T15:12:01.138Z,27.63
2022-12-14T15:14:46.743Z,28.17
2022-12-14T15:17:24.837Z,29.50
2022-12-14T15:19:59.321Z,27.83
2022-12-14T15:22:45.455Z,27.77
2022-12-14T15:25:28.580Z,27.83
2022-12-14T15:28:06.145Z,28.47
2022-12-14T15:30:37.693Z,28.93
2022-12-14T15:33:17.267Z,29.50
2022-12-14T15:35:49.414Z,28.20
2022-12-14T15:38:32.723Z,28.83
2022-12-14T15:41:07.302Z,28.20
2022-12-14T15:43:38.470Z,28.50
2022-12-14T15:46:23.675Z,28.63
2022-12-14T15:49:11.804Z,28.77
2022-12-14T15:51:42.262Z,28.53
2022-12-14T15:54:23.055Z,28.37
2022-12-14T15:56:56.777Z,27.43
2022-12-14T15:59:31.546Z,27.50
2022-12-14T16:02:22.040Z,27.17
2022-12-14T16:04:54.150Z,27.00
2022-12-14T16:07:28.300Z,27.77
2022-12-14T16:10:03.466Z,27.37
2022-12-14T16:12:48.178Z,27.77
2022-12-14T16:15:38.452Z,27.30
2022-12-14T16:18:11.940Z,28.00
2022-12-14T16:20:44.537Z,28.47
2022-12-14T16:23:22.484Z,27.93
2022-12-14T16:26:01.028Z,27.63
2022-12-14T16:28:32.371Z,27.77
2022-12-14T16:31:24.850Z,27.90
2022-12-14T16:34:23.642Z,28.33
2022-12-14T16:37:30.513Z,27.93
2022-12-14T16:39:53.720Z,27.70
2022-12-14T16:42:24.953Z,28.00
2022-12-14T16:44:55.166Z,27.70
2022-12-14T16:47:39.205Z,27.60
2022-12-14T16:50:40.052Z,31.73
2022-12-14T16:53:29.789Z,37.00
2022-12-14T16:56:19.865Z,29.57
2022-12-14T16:58:59.212Z,30.00
2022-12-14T17:01:28.691Z,29.47
2022-12-14T17:04:04.401Z,29.63
2022-12-14T17:06:45.016Z,30.10
2022-12-14T17:09:34.689Z,29.47
2022-12-14T17:12:14.322Z,29.70
2022-12-14T17:14:47.660Z,29.93
2022-12-14T17:17:31.950Z,29.63
2022-12-14T17:20:14.121Z,31.00
2022-12-14T17:22:43.321Z,31.70
2022-12-14T17:25:21.687Z,31.00
2022-12-14T17:27:52.697Z,31.57
2022-12-14T17:30:25.701Z,31.30
2022-12-14T17:32:55.374Z,30.87
2022-12-14T17:35:26.914Z,31.63
2022-12-14T17:38:03.113Z,31.57
2022-12-14T17:40:37.661Z,31.57
2022-12-14T17:43:09.360Z,32.50
2022-12-14T17:45:40.687Z,32.80
2022-12-14T17:48:13.900Z,31.73
2022-12-14T17:50:45.108Z,32.50
2022-12-14T17:53:30.036Z,33.03
2022-12-14T17:56:00.429Z,32.83
2022-12-14T17:58:29.834Z,33.53
2022-12-14T18:01:14.003Z,33.47
2022-12-14T18:03:50.480Z,33.57
2022-12-14T18:06:22.332Z,34.63
2022-12-14T18:08:54.170Z,33.27
2022-12-14T18:11:29.563Z,35.20
2022-12-14T18:14:00.396Z,35.27
2022-12-14T18:16:33.106Z,34.03
2022-12-14T18:21:49.297Z,34.30
2022-12-14T18:24:26.137Z,34.43
2022-12-14T18:26:54.798Z,35.53
2022-12-14T18:29:24.534Z,35.70
2022-12-14T18:32:00.120Z,35.63
2022-12-14T18:34:28.518Z,36.23
2022-12-14T18:37:00.220Z,35.33
2022-12-14T18:39:29.859Z,36.10
2022-12-14T18:42:04.542Z,36.97
2022-12-14T18:44:44.210Z,37.53
2022-12-14T18:47:40.012Z,37.03
2022-12-14T18:50:04.250Z,35.27
2022-12-14T18:52:35.303Z,35.40
2022-12-14T18:55:27.439Z,36.80
2022-12-14T18:58:01.443Z,36.23
2022-12-14T19:00:41.120Z,37.53
2022-12-14T19:03:10.076Z,37.60
2022-12-14T19:05:43.190Z,37.70
2022-12-14T19:08:13.555Z,37.10
2022-12-14T19:10:50.159Z,38.33
2022-12-14T19:13:25.961Z,37.23
2022-12-14T19:15:59.680Z,37.93
2022-12-14T19:18:42.795Z,38.87
2022-12-14T19:21:12.420Z,38.20
2022-12-14T19:23:41.792Z,38.23
2022-12-14T19:26:13.583Z,37.63
2022-12-14T19:28:52.787Z,38.40
2022-12-14T19:31:26.153Z,37.80
2022-12-14T19:33:57.593Z,37.23
2022-12-14T19:36:29.273Z,41.23
2022-12-14T19:39:01.298Z,40.77
2022-12-14T19:41:33.131Z,40.37
2022-12-14T19:44:01.941Z,38.60
2022-12-14T19:49:16.917Z,38.13
2022-12-14T19:51:48.668Z,39.00
2022-12-14T19:54:20.539Z,39.60
2022-12-14T19:56:52.845Z,37.83
2022-12-14T19:59:22.792Z,37.63
2022-12-14T20:01:52.433Z,38.20
2022-12-14T20:04:23.950Z,38.17
2022-12-14T20:07:00.380Z,36.63
2022-12-14T20:09:30.032Z,37.40
2022-12-14T20:12:00.942Z,37.57
2022-12-14T20:14:29.949Z,36.37
2022-12-14T20:17:00.291Z,36.67
2022-12-14T20:19:34.943Z,36.80
2022-12-14T20:22:03.536Z,36.17
2022-12-14T20:24:34.623Z,35.47
2022-12-14T20:27:09.246Z,35.80
2022-12-14T20:29:40.661Z,36.20
2022-12-14T20:32:18.087Z,36.30
2022-12-14T20:34:49.882Z,33.50
2022-12-14T20:37:19.827Z,36.33
2022-12-14T20:40:03.827Z,35.53
2022-12-14T20:42:42.539Z,35.97
2022-12-14T20:45:18.727Z,33.83
2022-12-14T20:47:50.031Z,34.30
2022-12-14T20:50:23.106Z,34.13
2022-12-14T20:52:55.880Z,34.87
2022-12-14T20:55:25.106Z,35.00
2022-12-14T20:57:54.471Z,34.67
2022-12-14T21:00:24.634Z,35.23
2022-12-14T21:02:53.144Z,33.83
2022-12-14T21:05:22.622Z,34.27
2022-12-14T21:07:55.961Z,34.73
2022-12-14T21:10:23.673Z,34.00
2022-12-14T21:12:55.726Z,35.03
2022-12-14T21:15:24.081Z,33.90
2022-12-14T21:17:53.384Z,34.23
2022-12-14T21:20:24.752Z,33.73
2022-12-14T21:22:54.568Z,33.43
2022-12-14T21:25:23.886Z,35.43
2022-12-14T21:27:53.816Z,35.47
2022-12-14T21:30:23.777Z,34.93
2022-12-14T21:32:55.246Z,34.50
2022-12-14T21:35:24.045Z,35.77
2022-12-14T21:37:52.792Z,36.20
2022-12-14T21:40:40.311Z,35.57
2022-12-14T21:43:08.867Z,34.20
2022-12-14T21:45:38.410Z,35.97
2022-12-14T21:48:10.780Z,36.03
2022-12-14T21:50:43.579Z,36.73
2022-12-14T21:53:11.036Z,36.40
2022-12-14T21:55:50.037Z,37.23
2022-12-14T21:58:19.167Z,36.03
2022-12-14T22:00:48.227Z,35.80
2022-12-14T22:03:15.737Z,35.40
2022-12-14T22:05:47.607Z,36.13
2022-12-14T22:08:15.967Z,37.30
2022-12-14T22:10:44.399Z,34.90
2022-12-14T22:13:14.137Z,36.77
2022-12-14T22:15:43.665Z,37.47
2022-12-14T22:18:12.063Z,37.07
2022-12-14T22:20:42.106Z,37.07
2022-12-14T22:23:10.913Z,36.70
2022-12-14T22:25:38.943Z,34.60
2022-12-14T22:28:10.799Z,36.73
2022-12-14T22:30:41.408Z,36.17
2022-12-14T22:33:10.151Z,37.67
2022-12-14T22:35:41.394Z,37.30
2022-12-14T22:38:10.085Z,36.03
2022-12-14T22:40:41.227Z,34.20
2022-12-14T22:43:08.567Z,35.57
2022-12-14T22:45:39.473Z,36.07
2022-12-14T22:48:10.916Z,36.60
2022-12-14T22:50:41.128Z,36.67
2022-12-14T22:53:11.368Z,36.50
2022-12-14T22:55:41.051Z,36.93
2022-12-14T22:58:18.139Z,36.60
2022-12-14T23:00:46.202Z,36.67
2022-12-14T23:03:15.466Z,38.03
2022-12-14T23:05:47.789Z,37.30
2022-12-14T23:08:19.533Z,38.33
2022-12-14T23:11:07.164Z,38.10
2022-12-14T23:13:54.674Z,36.17
2022-12-14T23:16:50.001Z,36.47
2022-12-14T23:19:37.786Z,36.80
2022-12-14T23:22:27.180Z,36.47
2022-12-14T23:25:14.197Z,36.77
2022-12-14T23:28:05.261Z,36.40
2022-12-14T23:30:54.340Z,35.87
2022-12-14T23:33:45.879Z,35.67
2022-12-14T23:36:35.298Z,35.37
2022-12-14T23:39:24.836Z,35.67
2022-12-14T23:42:12.258Z,37.00
2022-12-14T23:45:00.145Z,36.53
2022-12-14T23:47:49.916Z,35.93
2022-12-14T23:50:39.022Z,36.83
2022-12-14T23:53:28.257Z,36.03
2022-12-14T23:56:17.229Z,34.97
2022-12-14T23:59:07.251Z,35.53
